Martinsburg, Missouri
Current Conditions -  °F | °C
As of 1:54 AM on Monday 24 Nov 2014 (Local Time) from KCOU Reporting Station
Light Rain Light Rain  
Wind Chill: 25°   Ceiling: 1000
Heat Index: 36°   Visibility: 10mi
Dew Point: 34°   Wind: 21mph
Humidity: 93%   Direction: 310°NW
Pressure: 29.4"   Gusts: 31mph
Location:  39.1°N, 91.65°W
Report Text: KCOU 240754Z AUTO 31018G27KT 10SM -RA OVC010 02/01 A2940 RMK AO2 PK WND 33030/0700 SLP959 P0005 T00220011 $
Loading
Personal Weather Stations






























Interactive Weather Map New forecast layout! Learn more

10-Day Weather Forecast

Advertisements
Track Severe Weather on mobile